sensor_id;sensor_type;location;lat;lon;timestamp;pressure;altitude;pressure_sealevel;temperature;humidity
58843;BME280;44614;54.356;10.100;2023-02-28T00:00:45;102934.88;;;2.73;89.90
58843;BME280;44614;54.356;10.100;2023-02-28T00:03:10;102948.69;;;2.81;89.89
58843;BME280;44614;54.356;10.100;2023-02-28T00:05:36;102946.81;;;2.82;89.65
58843;BME280;44614;54.356;10.100;2023-02-28T00:08:01;102941.41;;;2.82;89.98
58843;BME280;44614;54.356;10.100;2023-02-28T00:10:28;102932.31;;;2.83;89.93
58843;BME280;44614;54.356;10.100;2023-02-28T00:12:56;102935.00;;;2.83;89.66
58843;BME280;44614;54.356;10.100;2023-02-28T00:15:24;102937.72;;;2.83;89.65
58843;BME280;44614;54.356;10.100;2023-02-28T00:17:49;102936.84;;;2.82;90.01
58843;BME280;44614;54.356;10.100;2023-02-28T00:20:15;102935.97;;;2.82;89.90
58843;BME280;44614;54.356;10.100;2023-02-28T00:22:43;102938.69;;;2.82;90.00
58843;BME280;44614;54.356;10.100;2023-02-28T00:25:10;102945.25;;;2.79;90.64
58843;BME280;44614;54.356;10.100;2023-02-28T00:27:38;102944.38;;;2.79;90.79
58843;BME280;44614;54.356;10.100;2023-02-28T00:30:04;102949.81;;;2.79;90.53
58843;BME280;44614;54.356;10.100;2023-02-28T00:32:30;102940.78;;;2.78;91.75
58843;BME280;44614;54.356;10.100;2023-02-28T00:34:56;102935.50;;;2.77;91.71
58843;BME280;44614;54.356;10.100;2023-02-28T00:37:21;102932.00;;;2.75;91.29
58843;BME280;44614;54.356;10.100;2023-02-28T00:39:46;102903.66;;;2.56;91.04
58843;BME280;44614;54.356;10.100;2023-02-28T00:42:12;102938.97;;;2.79;91.20
58843;BME280;44614;54.356;10.100;2023-02-28T00:44:37;102944.50;;;2.77;91.16
58843;BME280;44614;54.356;10.100;2023-02-28T00:47:02;102928.09;;;2.67;91.29
58843;BME280;44614;54.356;10.100;2023-02-28T00:49:28;102940.16;;;2.75;91.86
58843;BME280;44614;54.356;10.100;2023-02-28T00:51:54;102917.22;;;2.56;91.92
58843;BME280;44614;54.356;10.100;2023-02-28T00:54:20;102944.63;;;2.76;91.88
58843;BME280;44614;54.356;10.100;2023-02-28T00:56:47;102904.13;;;2.50;92.07
58843;BME280;44614;54.356;10.100;2023-02-28T00:59:14;102947.34;;;2.76;92.12
58843;BME280;44614;54.356;10.100;2023-02-28T01:01:40;102957.31;;;2.75;92.42
58843;BME280;44614;54.356;10.100;2023-02-28T01:04:05;102942.59;;;2.66;92.29
58843;BME280;44614;54.356;10.100;2023-02-28T01:06:31;102956.44;;;2.75;92.62
58843;BME280;44614;54.356;10.100;2023-02-28T01:08:57;102952.22;;;2.71;92.53
58843;BME280;44614;54.356;10.100;2023-02-28T01:11:22;102959.28;;;2.73;92.61
58843;BME280;44614;54.356;10.100;2023-02-28T01:13:48;102949.53;;;2.71;92.88
58843;BME280;44614;54.356;10.100;2023-02-28T01:16:13;102947.19;;;2.66;93.54
58843;BME280;44614;54.356;10.100;2023-02-28T01:18:38;102949.03;;;2.65;93.98
58843;BME280;44614;54.356;10.100;2023-02-28T01:21:09;102957.41;;;2.62;94.97
58843;BME280;44614;54.356;10.100;2023-02-28T01:23:35;102954.06;;;2.59;95.09
58843;BME280;44614;54.356;10.100;2023-02-28T01:26:08;102940.50;;;2.59;94.84
58843;BME280;44614;54.356;10.100;2023-02-28T01:28:35;102937.91;;;2.57;94.72
58843;BME280;44614;54.356;10.100;2023-02-28T01:31:01;102941.50;;;2.58;94.62
58843;BME280;44614;54.356;10.100;2023-02-28T01:33:26;102934.22;;;2.58;94.29
58843;BME280;44614;54.356;10.100;2023-02-28T01:35:59;102937.69;;;2.60;93.96
58843;BME280;44614;54.356;10.100;2023-02-28T01:38:25;102933.22;;;2.59;94.18
58843;BME280;44614;54.356;10.100;2023-02-28T01:40:50;102925.06;;;2.59;94.37
58843;BME280;44614;54.356;10.100;2023-02-28T01:43:27;102940.88;;;2.54;94.53
58843;BME280;44614;54.356;10.100;2023-02-28T01:45:55;102933.72;;;2.53;94.83
58843;BME280;44614;54.356;10.100;2023-02-28T01:48:32;102928.28;;;2.53;94.70
58843;BME280;44614;54.356;10.100;2023-02-28T01:51:05;102923.09;;;2.50;94.61
58843;BME280;44614;54.356;10.100;2023-02-28T01:53:37;102932.72;;;2.54;94.51
58843;BME280;44614;54.356;10.100;2023-02-28T01:56:07;102927.44;;;2.53;94.34
58843;BME280;44614;54.356;10.100;2023-02-28T01:58:34;102943.56;;;2.54;94.37
58843;BME280;44614;54.356;10.100;2023-02-28T02:01:00;102930.16;;;2.53;94.11
58843;BME280;44614;54.356;10.100;2023-02-28T02:03:28;102937.41;;;2.52;94.18
58843;BME280;44614;54.356;10.100;2023-02-28T02:05:54;102928.53;;;2.50;94.39
58843;BME280;44614;54.356;10.100;2023-02-28T02:08:23;102934.81;;;2.51;94.25
58843;BME280;44614;54.356;10.100;2023-02-28T02:10:52;102931.22;;;2.50;94.13
58843;BME280;44614;54.356;10.100;2023-02-28T02:13:29;102924.94;;;2.50;93.97
58843;BME280;44614;54.356;10.100;2023-02-28T02:16:33;102925.94;;;2.49;94.16
58843;BME280;44614;54.356;10.100;2023-02-28T02:19:41;102919.75;;;2.47;94.38
58843;BME280;44614;54.356;10.100;2023-02-28T02:25:34;102931.69;;;2.44;94.73
58843;BME280;44614;54.356;10.100;2023-02-28T02:31:04;102884.03;;;2.06;95.04
58843;BME280;44614;54.356;10.100;2023-02-28T02:36:31;102938.72;;;2.35;96.08
58843;BME280;44614;54.356;10.100;2023-02-28T02:39:23;102937.97;;;2.33;95.91
58843;BME280;44614;54.356;10.100;2023-02-28T02:41:52;102927.59;;;2.27;95.77
58843;BME280;44614;54.356;10.100;2023-02-28T02:44:29;102931.94;;;2.30;94.83
58843;BME280;44614;54.356;10.100;2023-02-28T02:47:03;102933.16;;;2.26;94.82
58843;BME280;44614;54.356;10.100;2023-02-28T02:49:33;102940.50;;;2.24;95.14
58843;BME280;44614;54.356;10.100;2023-02-28T02:52:03;102929.28;;;2.17;95.91
58843;BME280;44614;54.356;10.100;2023-02-28T02:54:33;102938.84;;;2.10;95.70
58843;BME280;44614;54.356;10.100;2023-02-28T02:57:04;102936.38;;;2.07;95.39
58843;BME280;44614;54.356;10.100;2023-02-28T02:59:32;102935.53;;;2.06;95.58
58843;BME280;44614;54.356;10.100;2023-02-28T03:02:02;102929.34;;;2.04;95.29
58843;BME280;44614;54.356;10.100;2023-02-28T03:04:33;102933.78;;;2.05;95.20
58843;BME280;44614;54.356;10.100;2023-02-28T03:06:59;102931.28;;;2.02;95.68
58843;BME280;44614;54.356;10.100;2023-02-28T03:09:25;102938.91;;;1.97;95.86
58843;BME280;44614;54.356;10.100;2023-02-28T03:11:54;102929.06;;;1.96;95.80
58843;BME280;44614;54.356;10.100;2023-02-28T03:19:34;102933.09;;;1.90;95.89
58843;BME280;44614;54.356;10.100;2023-02-28T03:22:29;102895.50;;;1.62;95.76
58843;BME280;44614;54.356;10.100;2023-02-28T03:27:30;102939.50;;;1.65;97.25
58843;BME280;44614;54.356;10.100;2023-02-28T03:30:10;102914.75;;;1.46;96.90
58843;BME280;44614;54.356;10.100;2023-02-28T03:32:54;102940.69;;;1.61;96.92
58843;BME280;44614;54.356;10.100;2023-02-28T03:35:24;102941.91;;;1.57;96.91
58843;BME280;44614;54.356;10.100;2023-02-28T03:37:54;102940.16;;;1.56;96.86
58843;BME280;44614;54.356;10.100;2023-02-28T03:40:25;102939.53;;;1.53;96.73
58843;BME280;44614;54.356;10.100;2023-02-28T03:42:58;102936.50;;;1.44;96.64
58843;BME280;44614;54.356;10.100;2023-02-28T03:45:30;102931.34;;;1.41;96.60
58843;BME280;44614;54.356;10.100;2023-02-28T03:48:05;102930.78;;;1.36;96.47
58843;BME280;44614;54.356;10.100;2023-02-28T03:50:37;102928.41;;;1.32;96.59
58843;BME280;44614;54.356;10.100;2023-02-28T03:53:18;102927.25;;;1.23;96.79
58843;BME280;44614;54.356;10.100;2023-02-28T03:55:47;102929.41;;;1.18;96.63
58843;BME280;44614;54.356;10.100;2023-02-28T04:01:35;102922.19;;;0.93;96.80
58843;BME280;44614;54.356;10.100;2023-02-28T04:04:02;102931.84;;;0.97;97.15
58843;BME280;44614;54.356;10.100;2023-02-28T04:06:31;102944.91;;;0.90;97.12
58843;BME280;44614;54.356;10.100;2023-02-28T04:08:56;102956.84;;;0.88;97.81
58843;BME280;44614;54.356;10.100;2023-02-28T04:11:42;102950.66;;;0.86;97.47
58843;BME280;44614;54.356;10.100;2023-02-28T04:14:09;102950.88;;;0.83;97.82
58843;BME280;44614;54.356;10.100;2023-02-28T04:16:36;102951.84;;;0.82;97.98
58843;BME280;44614;54.356;10.100;2023-02-28T04:19:03;102956.28;;;0.83;97.69
58843;BME280;44614;54.356;10.100;2023-02-28T04:21:56;102963.88;;;0.78;97.18
58843;BME280;44614;54.356;10.100;2023-02-28T04:24:24;102961.56;;;0.71;97.38
58843;BME280;44614;54.356;10.100;2023-02-28T04:26:54;102961.69;;;0.70;97.41
58843;BME280;44614;54.356;10.100;2023-02-28T04:29:31;102921.00;;;0.46;96.76
58843;BME280;44614;54.356;10.100;2023-02-28T04:32:00;102954.78;;;0.66;97.41
58843;BME280;44614;54.356;10.100;2023-02-28T04:34:27;102957.69;;;0.63;97.50
58843;BME280;44614;54.356;10.100;2023-02-28T04:36:54;102965.91;;;0.61;97.24
58843;BME280;44614;54.356;10.100;2023-02-28T04:39:20;102959.72;;;0.59;97.04
58843;BME280;44614;54.356;10.100;2023-02-28T04:41:46;102959.19;;;0.54;96.95
58843;BME280;44614;54.356;10.100;2023-02-28T04:44:11;102964.81;;;0.51;97.41
58843;BME280;44614;54.356;10.100;2023-02-28T04:46:37;102960.59;;;0.47;96.94
58843;BME280;44614;54.356;10.100;2023-02-28T04:49:02;102901.91;;;0.09;96.87
58843;BME280;44614;54.356;10.100;2023-02-28T04:51:27;102930.91;;;0.20;96.91
58843;BME280;44614;54.356;10.100;2023-02-28T04:53:53;102962.28;;;0.35;97.49
58843;BME280;44614;54.356;10.100;2023-02-28T04:56:19;102953.53;;;0.32;97.03
58843;BME280;44614;54.356;10.100;2023-02-28T04:58:45;102957.50;;;0.26;97.00
58843;BME280;44614;54.356;10.100;2023-02-28T05:01:29;102957.81;;;0.21;97.09
58843;BME280;44614;54.356;10.100;2023-02-28T05:03:57;102952.84;;;0.15;97.30
58843;BME280;44614;54.356;10.100;2023-02-28T05:06:25;102952.06;;;0.13;97.43
58843;BME280;44614;54.356;10.100;2023-02-28T05:08:51;102956.69;;;0.11;97.81
58843;BME280;44614;54.356;10.100;2023-02-28T05:11:20;102955.75;;;0.12;97.56
58843;BME280;44614;54.356;10.100;2023-02-28T05:13:46;102956.91;;;0.08;97.18
58843;BME280;44614;54.356;10.100;2023-02-28T05:16:12;102957.16;;;-0.09;97.13
58843;BME280;44614;54.356;10.100;2023-02-28T05:18:37;102892.47;;;-0.38;96.99
58843;BME280;44614;54.356;10.100;2023-02-28T05:21:03;102939.63;;;-0.16;97.47
58843;BME280;44614;54.356;10.100;2023-02-28T05:23:29;102950.78;;;-0.08;97.19
58843;BME280;44614;54.356;10.100;2023-02-28T05:25:54;102956.50;;;-0.13;96.94
58843;BME280;44614;54.356;10.100;2023-02-28T05:28:20;102911.44;;;-0.39;97.20
58843;BME280;44614;54.356;10.100;2023-02-28T05:30:46;102957.78;;;-0.18;97.57
58843;BME280;44614;54.356;10.100;2023-02-28T05:33:12;102965.13;;;-0.20;97.69
58843;BME280;44614;54.356;10.100;2023-02-28T05:35:41;102965.31;;;-0.23;97.49
58843;BME280;44614;54.356;10.100;2023-02-28T05:38:08;102967.25;;;-0.26;97.71
58843;BME280;44614;54.356;10.100;2023-02-28T05:40:34;102971.00;;;-0.28;97.69
58843;BME280;44614;54.356;10.100;2023-02-28T05:42:59;102972.84;;;-0.29;97.67
58843;BME280;44614;54.356;10.100;2023-02-28T05:45:25;102980.28;;;-0.32;97.48
58843;BME280;44614;54.356;10.100;2023-02-28T05:47:53;102976.91;;;-0.36;97.47
58843;BME280;44614;54.356;10.100;2023-02-28T05:50:19;102974.41;;;-0.39;97.97
58843;BME280;44614;54.356;10.100;2023-02-28T05:52:49;102973.06;;;-0.46;97.66
58843;BME280;44614;54.356;10.100;2023-02-28T05:55:14;102978.38;;;-0.44;97.72
58843;BME280;44614;54.356;10.100;2023-02-28T05:57:40;102983.97;;;-0.47;97.83
58843;BME280;44614;54.356;10.100;2023-02-28T06:00:05;102983.31;;;-0.51;97.84
58843;BME280;44614;54.356;10.100;2023-02-28T06:02:31;102985.63;;;-0.59;97.71
58843;BME280;44614;54.356;10.100;2023-02-28T06:04:56;102996.25;;;-0.56;98.04
58843;BME280;44614;54.356;10.100;2023-02-28T06:07:22;102992.69;;;-0.57;98.22
58843;BME280;44614;54.356;10.100;2023-02-28T06:09:47;102988.34;;;-0.59;98.07
58843;BME280;44614;54.356;10.100;2023-02-28T06:12:13;102997.28;;;-0.59;97.98
58843;BME280;44614;54.356;10.100;2023-02-28T06:14:38;102996.53;;;-0.61;98.11
58843;BME280;44614;54.356;10.100;2023-02-28T06:17:04;103001.16;;;-0.63;98.22
58843;BME280;44614;54.356;10.100;2023-02-28T06:19:29;103013.88;;;-0.65;97.84
58843;BME280;44614;54.356;10.100;2023-02-28T06:21:56;103010.59;;;-0.70;98.05
58843;BME280;44614;54.356;10.100;2023-02-28T06:24:23;103008.88;;;-0.71;98.11
58843;BME280;44614;54.356;10.100;2023-02-28T06:26:49;103015.91;;;-0.68;98.23
58843;BME280;44614;54.356;10.100;2023-02-28T06:29:14;103021.31;;;-0.68;98.08
58843;BME280;44614;54.356;10.100;2023-02-28T06:31:44;103030.34;;;-0.69;98.12
58843;BME280;44614;54.356;10.100;2023-02-28T06:34:10;103012.53;;;-0.72;98.05
58843;BME280;44614;54.356;10.100;2023-02-28T06:36:37;103016.19;;;-0.73;98.40
58843;BME280;44614;54.356;10.100;2023-02-28T06:39:03;103029.66;;;-0.73;98.54
58843;BME280;44614;54.356;10.100;2023-02-28T06:41:28;103030.09;;;-0.65;98.47
58843;BME280;44614;54.356;10.100;2023-02-28T06:43:54;103002.19;;;-0.65;98.14
58843;BME280;44614;54.356;10.100;2023-02-28T06:46:20;103025.53;;;-0.50;98.02
58843;BME280;44614;54.356;10.100;2023-02-28T06:48:45;103021.47;;;-0.43;97.95
58843;BME280;44614;54.356;10.100;2023-02-28T06:51:15;103028.03;;;-0.33;97.33
58843;BME280;44614;54.356;10.100;2023-02-28T06:53:41;103027.53;;;-0.25;97.43
58843;BME280;44614;54.356;10.100;2023-02-28T06:56:08;103026.91;;;-0.16;97.55
58843;BME280;44614;54.356;10.100;2023-02-28T06:58:34;103034.44;;;-0.07;97.40
58843;BME280;44614;54.356;10.100;2023-02-28T07:01:00;103029.19;;;0.05;97.16
58843;BME280;44614;54.356;10.100;2023-02-28T07:03:25;103026.00;;;0.12;96.71
58843;BME280;44614;54.356;10.100;2023-02-28T07:05:51;103029.59;;;0.26;95.89
58843;BME280;44614;54.356;10.100;2023-02-28T07:08:16;103030.72;;;0.36;95.62
58843;BME280;44614;54.356;10.100;2023-02-28T07:10:42;103026.44;;;0.46;95.86
58843;BME280;44614;54.356;10.100;2023-02-28T07:13:08;103020.19;;;0.58;95.45
58843;BME280;44614;54.356;10.100;2023-02-28T07:15:34;103022.25;;;0.67;95.74
58843;BME280;44614;54.356;10.100;2023-02-28T07:18:00;103021.00;;;0.73;95.35
58843;BME280;44614;54.356;10.100;2023-02-28T07:20:25;103006.03;;;0.67;95.08
58843;BME280;44614;54.356;10.100;2023-02-28T07:22:51;103032.03;;;0.83;95.21
58843;BME280;44614;54.356;10.100;2023-02-28T07:25:25;103031.81;;;0.86;94.80
58843;BME280;44614;54.356;10.100;2023-02-28T07:27:51;103001.59;;;0.66;94.31
58843;BME280;44614;54.356;10.100;2023-02-28T07:30:17;103035.06;;;0.91;94.50
58843;BME280;44614;54.356;10.100;2023-02-28T07:32:42;103028.91;;;0.89;95.00
58843;BME280;44614;54.356;10.100;2023-02-28T07:35:08;103025.41;;;0.87;95.34
58843;BME280;44614;54.356;10.100;2023-02-28T07:37:33;103037.75;;;0.91;95.62
58843;BME280;44614;54.356;10.100;2023-02-28T07:40:05;103025.00;;;0.93;95.67
58843;BME280;44614;54.356;10.100;2023-02-28T07:42:34;103000.75;;;0.79;96.20
58843;BME280;44614;54.356;10.100;2023-02-28T07:44:59;103025.34;;;1.01;96.32
58843;BME280;44614;54.356;10.100;2023-02-28T07:47:24;103019.28;;;0.97;96.36
58843;BME280;44614;54.356;10.100;2023-02-28T07:49:50;103003.69;;;0.88;96.40
58843;BME280;44614;54.356;10.100;2023-02-28T07:52:16;103032.72;;;1.12;96.74
58843;BME280;44614;54.356;10.100;2023-02-28T07:54:41;103028.91;;;1.14;96.55
58843;BME280;44614;54.356;10.100;2023-02-28T07:57:06;103034.66;;;1.23;96.77
58843;BME280;44614;54.356;10.100;2023-02-28T07:59:31;103040.59;;;1.28;96.76
58843;BME280;44614;54.356;10.100;2023-02-28T08:01:57;103039.41;;;1.32;96.98
58843;BME280;44614;54.356;10.100;2023-02-28T08:04:24;103033.88;;;1.33;97.22
58843;BME280;44614;54.356;10.100;2023-02-28T08:06:50;103036.69;;;1.44;97.41
58843;BME280;44614;54.356;10.100;2023-02-28T08:09:17;103046.00;;;1.53;97.42
58843;BME280;44614;54.356;10.100;2023-02-28T08:11:42;103031.28;;;1.57;97.57
58843;BME280;44614;54.356;10.100;2023-02-28T08:14:08;103021.41;;;1.56;97.28
58843;BME280;44614;54.356;10.100;2023-02-28T08:16:33;103035.91;;;1.68;97.03
58843;BME280;44614;54.356;10.100;2023-02-28T08:18:58;103032.97;;;1.71;96.91
58843;BME280;44614;54.356;10.100;2023-02-28T08:21:23;103018.69;;;1.69;96.99
58843;BME280;44614;54.356;10.100;2023-02-28T08:23:50;103032.47;;;1.90;96.55
58843;BME280;44614;54.356;10.100;2023-02-28T08:26:17;103008.66;;;1.82;96.51
58843;BME280;44614;54.356;10.100;2023-02-28T08:28:42;103033.09;;;2.06;97.59
58843;BME280;44614;54.356;10.100;2023-02-28T08:31:11;103000.72;;;1.92;97.13
58843;BME280;44614;54.356;10.100;2023-02-28T08:33:37;103022.78;;;2.11;96.54
58843;BME280;44614;54.356;10.100;2023-02-28T08:36:04;103033.13;;;2.17;96.50
58843;BME280;44614;54.356;10.100;2023-02-28T08:38:29;103020.34;;;2.19;96.04
58843;BME280;44614;54.356;10.100;2023-02-28T08:40:59;103027.19;;;2.36;95.56
58843;BME280;44614;54.356;10.100;2023-02-28T08:43:25;103017.25;;;2.37;95.30
58843;BME280;44614;54.356;10.100;2023-02-28T08:45:55;103026.94;;;2.52;95.17
58843;BME280;44614;54.356;10.100;2023-02-28T08:48:25;103030.00;;;2.59;94.68
58843;BME280;44614;54.356;10.100;2023-02-28T08:51:01;103034.13;;;2.64;94.75
58843;BME280;44614;54.356;10.100;2023-02-28T08:53:27;103006.94;;;2.53;93.86
58843;BME280;44614;54.356;10.100;2023-02-28T08:56:15;103033.75;;;2.69;93.79
58843;BME280;44614;54.356;10.100;2023-02-28T08:58:42;103036.25;;;2.72;93.69
58843;BME280;44614;54.356;10.100;2023-02-28T09:01:10;103034.16;;;2.76;93.44
58843;BME280;44614;54.356;10.100;2023-02-28T09:03:37;103031.22;;;2.79;93.32
58843;BME280;44614;54.356;10.100;2023-02-28T09:06:02;103037.13;;;2.84;93.09
58843;BME280;44614;54.356;10.100;2023-02-28T09:08:29;102993.88;;;2.58;93.29
58843;BME280;44614;54.356;10.100;2023-02-28T09:10:55;103039.25;;;2.91;93.23
58843;BME280;44614;54.356;10.100;2023-02-28T09:13:23;103015.03;;;2.77;93.37
58843;BME280;44614;54.356;10.100;2023-02-28T09:15:49;103040.91;;;3.05;92.45
58843;BME280;44614;54.356;10.100;2023-02-28T09:18:14;102955.81;;;2.60;91.74
58843;BME280;44614;54.356;10.100;2023-02-28T09:20:41;103030.78;;;3.07;91.79
58843;BME280;44614;54.356;10.100;2023-02-28T09:23:08;103026.72;;;3.13;91.32
58843;BME280;44614;54.356;10.100;2023-02-28T09:25:33;103018.66;;;3.00;91.31
58843;BME280;44614;54.356;10.100;2023-02-28T09:27:59;103040.78;;;3.18;91.82
58843;BME280;44614;54.356;10.100;2023-02-28T09:30:24;103037.94;;;3.20;91.26
58843;BME280;44614;54.356;10.100;2023-02-28T09:32:50;103056.97;;;3.31;90.93
58843;BME280;44614;54.356;10.100;2023-02-28T09:35:19;103050.94;;;3.38;90.95
58843;BME280;44614;54.356;10.100;2023-02-28T09:37:47;103053.81;;;3.48;90.87
58843;BME280;44614;54.356;10.100;2023-02-28T09:40:12;103057.75;;;3.55;90.52
58843;BME280;44614;54.356;10.100;2023-02-28T09:42:40;103054.03;;;3.56;90.43
58843;BME280;44614;54.356;10.100;2023-02-28T09:45:15;103058.09;;;3.62;90.21
58843;BME280;44614;54.356;10.100;2023-02-28T09:47:45;103060.59;;;3.65;89.95
58843;BME280;44614;54.356;10.100;2023-02-28T09:50:21;103070.09;;;3.71;89.71
58843;BME280;44614;54.356;10.100;2023-02-28T09:52:49;103049.84;;;3.75;88.96
58843;BME280;44614;54.356;10.100;2023-02-28T09:57:41;103056.75;;;3.79;89.02
58843;BME280;44614;54.356;10.100;2023-02-28T10:00:23;103027.13;;;3.64;88.25
58843;BME280;44614;54.356;10.100;2023-02-28T10:05:27;103063.91;;;3.91;88.23
58843;BME280;44614;54.356;10.100;2023-02-28T10:08:01;103060.56;;;3.99;87.18
58843;BME280;44614;54.356;10.100;2023-02-28T10:11:23;103067.84;;;3.98;83.81
58843;BME280;44614;54.356;10.100;2023-02-28T10:13:54;103056.13;;;3.98;84.33
58843;BME280;44614;54.356;10.100;2023-02-28T10:16:31;103061.66;;;4.07;84.58
58843;BME280;44614;54.356;10.100;2023-02-28T10:19:22;103057.81;;;4.10;84.84
58843;BME280;44614;54.356;10.100;2023-02-28T10:24:47;103037.69;;;4.12;85.37
58843;BME280;44614;54.356;10.100;2023-02-28T10:27:17;103063.47;;;4.29;84.79
58843;BME280;44614;54.356;10.100;2023-02-28T10:29:50;103058.03;;;4.29;84.95
58843;BME280;44614;54.356;10.100;2023-02-28T10:32:18;103063.31;;;4.31;85.16
58843;BME280;44614;54.356;10.100;2023-02-28T10:34:46;103058.78;;;4.31;85.35
58843;BME280;44614;54.356;10.100;2023-02-28T10:37:16;103050.13;;;4.26;85.85
58843;BME280;44614;54.356;10.100;2023-02-28T10:39:44;103055.16;;;4.31;86.20
58843;BME280;44614;54.356;10.100;2023-02-28T10:42:25;103059.25;;;4.36;83.94
58843;BME280;44614;54.356;10.100;2023-02-28T10:45:15;103065.16;;;4.42;82.39
58843;BME280;44614;54.356;10.100;2023-02-28T10:48:03;103057.00;;;4.42;83.46
58843;BME280;44614;54.356;10.100;2023-02-28T10:50:51;103026.72;;;4.35;83.86
58843;BME280;44614;54.356;10.100;2023-02-28T10:58:33;103051.06;;;4.69;83.33
58843;BME280;44614;54.356;10.100;2023-02-28T11:01:14;103049.81;;;4.73;83.47
58843;BME280;44614;54.356;10.100;2023-02-28T11:03:39;103054.00;;;4.77;81.01
58843;BME280;44614;54.356;10.100;2023-02-28T11:06:34;103051.50;;;4.85;81.04
58843;BME280;44614;54.356;10.100;2023-02-28T11:09:04;103044.81;;;4.89;81.56
58843;BME280;44614;54.356;10.100;2023-02-28T11:11:42;103047.66;;;4.87;80.40
58843;BME280;44614;54.356;10.100;2023-02-28T11:14:19;103002.81;;;4.71;81.70
58843;BME280;44614;54.356;10.100;2023-02-28T11:16:44;103057.34;;;5.01;80.55
58843;BME280;44614;54.356;10.100;2023-02-28T11:19:28;103047.94;;;5.05;81.14
58843;BME280;44614;54.356;10.100;2023-02-28T11:21:59;103043.41;;;5.16;81.34
58843;BME280;44614;54.356;10.100;2023-02-28T11:24:33;103036.44;;;5.23;80.77
58843;BME280;44614;54.356;10.100;2023-02-28T11:26:59;103033.75;;;5.32;80.73
58843;BME280;44614;54.356;10.100;2023-02-28T11:29:25;103023.78;;;5.43;80.08
58843;BME280;44614;54.356;10.100;2023-02-28T11:34:27;103022.44;;;5.68;80.39
58843;BME280;44614;54.356;10.100;2023-02-28T11:36:55;103023.06;;;5.81;78.17
58843;BME280;44614;54.356;10.100;2023-02-28T11:39:22;103025.91;;;5.79;77.31
58843;BME280;44614;54.356;10.100;2023-02-28T11:52:59;103013.00;;;5.81;80.29
58843;BME280;44614;54.356;10.100;2023-02-28T11:55:35;103012.44;;;5.87;78.84
58843;BME280;44614;54.356;10.100;2023-02-28T12:03:42;103013.91;;;5.92;79.38
58843;BME280;44614;54.356;10.100;2023-02-28T12:19:21;102990.84;;;5.96;78.52
58843;BME280;44614;54.356;10.100;2023-02-28T12:27:18;102987.28;;;6.15;78.85
58843;BME280;44614;54.356;10.100;2023-02-28T12:30:01;102979.38;;;6.12;79.17
58843;BME280;44614;54.356;10.100;2023-02-28T12:32:44;102976.38;;;6.15;79.22
58843;BME280;44614;54.356;10.100;2023-02-28T12:37:59;102966.03;;;6.28;76.90
58843;BME280;44614;54.356;10.100;2023-02-28T12:40:39;102959.16;;;6.33;77.72
58843;BME280;44614;54.356;10.100;2023-02-28T12:43:09;102958.44;;;6.61;77.73
58843;BME280;44614;54.356;10.100;2023-02-28T12:48:08;102952.94;;;7.17;76.82
58843;BME280;44614;54.356;10.100;2023-02-28T12:50:37;102947.06;;;7.49;78.34
58843;BME280;44614;54.356;10.100;2023-02-28T12:56:09;102938.03;;;8.30;77.22
58843;BME280;44614;54.356;10.100;2023-02-28T12:58:45;102938.00;;;8.84;73.47
58843;BME280;44614;54.356;10.100;2023-02-28T13:04:08;102933.09;;;9.64;73.55
58843;BME280;44614;54.356;10.100;2023-02-28T13:09:12;102930.81;;;10.18;73.77
58843;BME280;44614;54.356;10.100;2023-02-28T13:19:43;102910.22;;;11.04;70.78
58843;BME280;44614;54.356;10.100;2023-02-28T13:22:19;102889.97;;;10.88;71.99
58843;BME280;44614;54.356;10.100;2023-02-28T13:24:50;102907.44;;;11.12;72.26
58843;BME280;44614;54.356;10.100;2023-02-28T13:27:31;102917.97;;;11.39;71.93
58843;BME280;44614;54.356;10.100;2023-02-28T13:29:57;102921.66;;;11.63;69.98
58843;BME280;44614;54.356;10.100;2023-02-28T13:47:32;102906.94;;;12.56;68.72
58843;BME280;44614;54.356;10.100;2023-02-28T13:55:32;102905.66;;;12.20;69.41
58843;BME280;44614;54.356;10.100;2023-02-28T13:58:24;102864.19;;;12.22;66.27
58843;BME280;44614;54.356;10.100;2023-02-28T14:06:31;102882.78;;;12.20;68.42
58843;BME280;44614;54.356;10.100;2023-02-28T14:09:23;102883.00;;;12.56;67.49
58843;BME280;44614;54.356;10.100;2023-02-28T14:11:50;102885.84;;;12.63;66.06
58843;BME280;44614;54.356;10.100;2023-02-28T14:17:00;102885.69;;;12.79;62.87
58843;BME280;44614;54.356;10.100;2023-02-28T14:19:29;102861.63;;;12.73;63.71
58843;BME280;44614;54.356;10.100;2023-02-28T14:29:53;102868.41;;;12.10;63.94
58843;BME280;44614;54.356;10.100;2023-02-28T14:32:44;102876.06;;;12.23;56.41
58843;BME280;44614;54.356;10.100;2023-02-28T14:35:35;102864.41;;;12.35;64.27
58843;BME280;44614;54.356;10.100;2023-02-28T14:38:06;102866.25;;;12.58;64.29
58843;BME280;44614;54.356;10.100;2023-02-28T14:40:34;102866.50;;;12.71;64.28
58843;BME280;44614;54.356;10.100;2023-02-28T14:43:02;102865.09;;;12.90;63.87
58843;BME280;44614;54.356;10.100;2023-02-28T14:45:33;102869.16;;;12.79;63.07
58843;BME280;44614;54.356;10.100;2023-02-28T14:47:59;102854.19;;;12.59;63.32
58843;BME280;44614;54.356;10.100;2023-02-28T14:50:29;102869.78;;;12.66;63.36
58843;BME280;44614;54.356;10.100;2023-02-28T14:52:56;102867.72;;;12.68;63.19
58843;BME280;44614;54.356;10.100;2023-02-28T14:55:26;102858.06;;;12.50;58.73
58843;BME280;44614;54.356;10.100;2023-02-28T14:57:56;102865.88;;;12.23;62.17
58843;BME280;44614;54.356;10.100;2023-02-28T15:00:32;102861.50;;;12.14;62.72
58843;BME280;44614;54.356;10.100;2023-02-28T15:03:00;102867.50;;;11.94;60.97
58843;BME280;44614;54.356;10.100;2023-02-28T15:08:21;102862.72;;;11.57;62.27
58843;BME280;44614;54.356;10.100;2023-02-28T15:10:55;102864.59;;;11.57;63.38
58843;BME280;44614;54.356;10.100;2023-02-28T15:13:23;102852.66;;;11.41;63.87